Time;durP1;ratioP1;P1;durP2;ratioP2;P2;SDS_P1;SDS_P2;PMS_P1;PMS_P2;Temp;Humidity;BMP_temperature;BMP_pressure;BME280_temperature;BME280_humidity;BME280_pressure;Samples;Min_cycle;Max_cycle;Signal;HPM_P1;HPM_P2
2021/04/03 00:00:51;;;;;;;3.55;1.60;;;23.50;78.20;;;;;;5094875;28;20024;-64
2021/04/03 00:03:20;;;;;;;3.33;1.58;;;23.60;78.10;;;;;;5094576;28;20050;-60
2021/04/03 00:05:49;;;;;;;1.88;1.45;;;23.60;77.80;;;;;;5094525;28;20016;-61
2021/04/03 00:08:17;;;;;;;2.63;1.17;;;23.70;77.40;;;;;;5094321;28;20158;-62
2021/04/03 00:10:46;;;;;;;1.48;0.98;;;23.80;77.60;;;;;;5094426;28;20103;-63
2021/04/03 00:13:14;;;;;;;2.17;1.13;;;23.70;77.70;;;;;;5094295;28;20020;-61
2021/04/03 00:15:43;;;;;;;2.10;1.02;;;23.80;77.00;;;;;;5094725;28;20093;-62
2021/04/03 00:18:12;;;;;;;4.65;1.30;;;23.90;76.40;;;;;;5093817;28;20036;-59
2021/04/03 00:20:42;;;;;;;1.25;1.10;;;24.00;76.40;;;;;;5094442;28;20048;-59
2021/04/03 00:23:10;;;;;;;2.13;1.35;;;24.10;76.80;;;;;;5094266;28;20057;-64
2021/04/03 00:25:37;;;;;;;2.03;1.23;;;23.90;77.20;;;;;;5093248;28;20036;-63
2021/04/03 00:28:05;;;;;;;2.55;1.15;;;23.90;77.20;;;;;;5093853;28;20020;-63
2021/04/03 00:30:32;;;;;;;1.40;1.10;;;24.10;77.00;;;;;;5093832;28;20073;-65
2021/04/03 00:33:02;;;;;;;1.80;1.20;;;24.10;76.70;;;;;;5094253;28;20028;-62
2021/04/03 00:35:32;;;;;;;4.93;1.20;;;24.10;76.60;;;;;;5094260;28;20035;-62
2021/04/03 00:38:00;;;;;;;4.38;1.33;;;24.10;76.20;;;;;;5094051;28;20028;-60
2021/04/03 00:40:31;;;;;;;1.58;1.27;;;24.10;75.80;;;;;;5093712;28;20031;-59
2021/04/03 00:43:01;;;;;;;1.42;1.08;;;24.20;76.30;;;;;;5093592;28;20032;-55
2021/04/03 00:45:28;;;;;;;6.50;1.33;;;24.20;76.50;;;;;;5093833;28;20528;-64
2021/04/03 00:47:56;;;;;;;1.95;1.30;;;24.40;75.70;;;;;;5093352;28;20397;-56
2021/04/03 00:50:29;;;;;;;1.77;1.33;;;24.50;75.00;;;;;;5093720;28;20020;-57
2021/04/03 00:52:57;;;;;;;1.23;1.02;;;24.40;75.90;;;;;;5093647;28;20048;-62
2021/04/03 00:55:24;;;;;;;1.48;1.08;;;24.50;75.60;;;;;;5092971;28;20106;-64
2021/04/03 00:57:52;;;;;;;3.55;1.45;;;24.30;76.20;;;;;;5093717;28;20038;-56
2021/04/03 01:00:20;;;;;;;1.65;1.02;;;24.40;75.80;;;;;;5093629;28;20031;-66
2021/04/03 01:02:48;;;;;;;5.25;1.20;;;24.50;75.50;;;;;;5093639;28;20036;-60
2021/04/03 01:05:19;;;;;;;2.08;1.40;;;24.70;74.80;;;;;;5093629;28;20116;-61
2021/04/03 01:07:47;;;;;;;1.95;1.30;;;24.70;75.30;;;;;;5093495;28;20055;-62
2021/04/03 01:10:17;;;;;;;5.55;1.35;;;24.90;74.00;;;;;;5093487;28;20032;-62
2021/04/03 01:13:16;;;;;;;2.60;1.10;;;25.00;74.10;;;;;;5093376;28;20524;-59
2021/04/03 01:16:02;;;;;;;2.35;1.25;;;25.10;73.60;;;;;;5093588;28;20028;-59
2021/04/03 01:19:02;;;;;;;1.48;0.82;;;25.00;74.20;;;;;;5092996;28;20498;-56
2021/04/03 01:22:06;;;;;;;1.42;1.00;;;24.90;74.30;;;;;;5093036;28;20042;-57
2021/04/03 01:25:03;;;;;;;1.77;1.17;;;24.90;74.10;;;;;;5093246;28;20032;-64
2021/04/03 01:27:31;;;;;;;2.83;1.48;;;25.10;74.00;;;;;;5092831;28;20020;-62
2021/04/03 01:30:08;;;;;;;2.25;1.20;;;25.20;73.70;;;;;;5093087;28;20471;-62
2021/04/03 01:32:56;;;;;;;0.82;0.70;;;25.10;73.80;;;;;;5093164;28;20020;-63
2021/04/03 01:35:38;;;;;;;3.67;1.27;;;25.20;73.90;;;;;;5092766;28;20036;-59
2021/04/03 01:38:18;;;;;;;2.40;1.17;;;25.20;73.40;;;;;;5093104;28;20082;-59
2021/04/03 01:40:48;;;;;;;1.90;1.17;;;25.40;72.20;;;;;;5093003;28;20093;-59
2021/04/03 01:43:23;;;;;;;1.85;1.00;;;25.40;71.70;;;;;;5093136;28;20032;-55
2021/04/03 01:45:54;;;;;;;1.00;0.90;;;25.40;72.90;;;;;;5093352;28;20020;-59
2021/04/03 01:48:24;;;;;;;1.45;0.93;;;25.50;72.10;;;;;;5093222;28;20031;-58
2021/04/03 01:50:51;;;;;;;2.03;1.17;;;25.60;71.20;;;;;;5092972;28;20115;-58
2021/04/03 01:53:23;;;;;;;1.38;1.00;;;25.50;72.90;;;;;;5093123;28;20045;-57
2021/04/03 01:55:54;;;;;;;1.30;1.08;;;25.60;72.90;;;;;;5092689;28;20044;-56
2021/04/03 01:58:23;;;;;;;1.47;1.17;;;25.50;72.20;;;;;;5092840;28;20419;-59
2021/04/03 02:00:53;;;;;;;1.73;1.33;;;25.70;72.60;;;;;;5079376;28;20039;-63
2021/04/03 02:03:21;;;;;;;2.60;1.25;;;25.70;71.10;;;;;;5069050;28;20020;-60
2021/04/03 02:05:54;;;;;;;1.35;1.00;;;25.80;70.70;;;;;;5052291;28;20028;-60
2021/04/03 02:08:28;;;;;;;1.88;1.20;;;26.00;70.00;;;;;;5072057;28;20033;-58
2021/04/03 02:10:59;;;;;;;2.17;0.80;;;25.80;71.80;;;;;;5069617;28;20032;-60
2021/04/03 02:13:27;;;;;;;1.70;0.88;;;26.00;70.80;;;;;;5070041;28;20028;-55
2021/04/03 02:15:55;;;;;;;1.90;1.02;;;26.00;71.40;;;;;;5065194;28;20025;-58
2021/04/03 02:18:23;;;;;;;2.35;1.10;;;25.90;70.30;;;;;;5070315;28;20360;-56
2021/04/03 02:20:51;;;;;;;1.38;1.08;;;26.10;70.50;;;;;;5070528;28;20092;-53
2021/04/03 02:23:18;;;;;;;1.85;1.33;;;26.00;71.30;;;;;;5068637;28;20085;-50
2021/04/03 02:25:45;;;;;;;2.90;1.23;;;25.90;70.50;;;;;;5065337;28;20033;-52
2021/04/03 02:28:13;;;;;;;1.50;0.90;;;26.00;69.60;;;;;;5070398;28;20514;-60
2021/04/03 02:30:40;;;;;;;5.72;1.00;;;26.20;65.60;;;;;;5059539;28;20470;-60
2021/04/03 02:33:08;;;;;;;4.63;0.80;;;26.60;64.40;;;;;;5068098;28;20021;-61
2021/04/03 02:35:35;;;;;;;3.83;3.10;;;26.60;63.70;;;;;;5070249;28;20021;-58
2021/04/03 02:38:05;;;;;;;4.90;3.45;;;26.90;67.20;;;;;;5070928;28;20487;-60
2021/04/03 02:40:34;;;;;;;8.38;4.15;;;26.20;70.50;;;;;;5051689;28;20074;-57
2021/04/03 02:43:15;;;;;;;6.05;3.65;;;26.50;68.50;;;;;;5051749;28;20033;-55
2021/04/03 02:46:27;;;;;;;4.05;1.13;;;26.40;64.20;;;;;;5051992;28;20028;-56
2021/04/03 02:48:58;;;;;;;2.25;0.70;;;26.60;62.90;;;;;;5027831;28;20227;-58
2021/04/03 02:51:33;;;;;;;4.67;1.37;;;27.00;61.20;;;;;;5051419;28;20112;-54
2021/04/03 02:54:02;;;;;;;9.68;3.90;;;27.20;61.20;;;;;;5051762;28;20476;-56
2021/04/03 02:56:31;;;;;;;6.18;4.07;;;26.90;67.10;;;;;;5051818;28;20040;-53
2021/04/03 02:59:00;;;;;;;5.95;3.53;;;26.60;67.90;;;;;;5056772;28;20158;-55
2021/04/03 03:01:29;;;;;;;7.18;6.43;;;26.40;70.00;;;;;;5071311;28;20020;-54
2021/04/03 03:03:57;;;;;;;4.60;3.58;;;26.20;70.50;;;;;;5071942;28;20043;-55
2021/04/03 03:06:24;;;;;;;4.50;2.75;;;26.40;67.20;;;;;;5077325;28;20055;-59
2021/04/03 03:08:53;;;;;;;6.13;5.38;;;26.30;63.60;;;;;;5091810;28;20035;-61
2021/04/03 03:11:24;;;;;;;5.13;3.00;;;26.40;69.20;;;;;;5093717;28;20066;-56
2021/04/03 03:13:53;;;;;;;5.90;4.88;;;26.10;64.50;;;;;;5095604;28;20034;-55
2021/04/03 03:16:22;;;;;;;2.25;0.98;;;26.30;69.80;;;;;;5068108;28;20375;-57
2021/04/03 03:18:51;;;;;;;4.53;2.35;;;26.30;63.60;;;;;;5073832;28;20489;-53
2021/04/03 03:21:19;;;;;;;3.85;3.45;;;26.50;68.40;;;;;;5073576;28;20028;-64
2021/04/03 03:23:47;;;;;;;5.47;2.97;;;26.90;66.30;;;;;;5073767;28;20043;-60
2021/04/03 03:26:14;;;;;;;6.28;4.70;;;26.90;62.70;;;;;;5069175;28;20052;-61
2021/04/03 03:28:43;;;;;;;6.85;5.30;;;27.00;64.20;;;;;;5072378;28;20113;-52
2021/04/03 03:31:11;;;;;;;6.03;3.22;;;26.50;68.40;;;;;;5072186;28;20021;-59
2021/04/03 03:33:39;;;;;;;7.97;2.50;;;26.60;64.60;;;;;;5073377;28;20028;-62
2021/04/03 03:36:08;;;;;;;3.75;3.05;;;26.80;65.60;;;;;;5068673;28;20031;-60
2021/04/03 03:38:37;;;;;;;4.30;3.28;;;26.90;66.90;;;;;;5073156;28;20035;-62
2021/04/03 03:41:05;;;;;;;3.80;2.72;;;27.00;67.00;;;;;;5072664;28;20027;-56
2021/04/03 03:43:33;;;;;;;2.35;1.60;;;27.10;66.50;;;;;;5073327;28;20030;-53
2021/04/03 03:46:03;;;;;;;3.58;1.63;;;27.10;65.60;;;;;;5068599;28;20028;-61
2021/04/03 03:48:31;;;;;;;7.43;1.77;;;27.20;65.30;;;;;;5073489;28;20028;-51
2021/04/03 03:50:59;;;;;;;2.13;1.35;;;27.20;66.20;;;;;;5073101;28;20029;-48
2021/04/03 03:53:27;;;;;;;2.60;1.52;;;27.10;65.90;;;;;;5072711;28;20079;-48
2021/04/03 03:55:55;;;;;;;2.80;1.30;;;27.20;67.10;;;;;;5068137;28;20126;-51
2021/04/03 03:58:23;;;;;;;4.80;1.48;;;27.20;66.50;;;;;;5073341;28;20059;-54
2021/04/03 04:00:52;;;;;;;4.40;0.90;;;27.20;67.40;;;;;;5073642;28;20029;-56
2021/04/03 04:03:19;;;;;;;7.00;1.27;;;27.10;66.10;;;;;;5074573;28;20043;-50
2021/04/03 04:05:47;;;;;;;3.03;1.42;;;27.10;67.00;;;;;;5074059;28;20033;-48
2021/04/03 04:08:17;;;;;;;5.70;1.40;;;27.20;66.10;;;;;;5074277;28;20024;-50
2021/04/03 04:10:45;;;;;;;4.45;1.10;;;27.20;67.50;;;;;;5074522;28;20036;-53
2021/04/03 04:13:12;;;;;;;8.32;1.60;;;27.10;66.40;;;;;;5074219;28;20025;-52
2021/04/03 04:15:40;;;;;;;2.33;0.80;;;27.10;67.30;;;;;;5074232;28;20038;-51
2021/04/03 04:18:07;;;;;;;4.93;1.27;;;27.10;65.30;;;;;;5074551;28;20021;-51
2021/04/03 04:20:35;;;;;;;8.45;1.17;;;27.20;66.10;;;;;;5073887;28;20056;-53
2021/04/03 04:23:02;;;;;;;2.88;1.05;;;27.20;66.00;;;;;;5073143;28;20024;-51
2021/04/03 04:25:33;;;;;;;5.50;1.10;;;27.30;66.50;;;;;;5074166;28;20033;-54
2021/04/03 04:28:01;;;;;;;7.70;1.20;;;27.30;65.90;;;;;;5073387;28;20051;-55
2021/04/03 04:30:29;;;;;;;2.45;1.08;;;27.30;66.00;;;;;;5074033;28;20081;-51
2021/04/03 04:32:56;;;;;;;4.65;1.02;;;27.30;66.00;;;;;;5074260;28;20383;-54
2021/04/03 04:35:32;;;;;;;6.28;1.30;;;27.30;66.60;;;;;;5063722;28;20222;-60
2021/04/03 04:37:59;;;;;;;5.82;1.13;;;27.20;67.90;;;;;;5037627;28;20545;-54
2021/04/03 04:40:30;;;;;;;5.15;1.30;;;27.10;68.60;;;;;;5072443;28;20151;-57
2021/04/03 04:42:58;;;;;;;10.95;1.60;;;27.20;68.40;;;;;;5072285;28;20037;-54
2021/04/03 04:45:26;;;;;;;3.55;1.10;;;27.30;68.00;;;;;;5071585;28;20029;-52
2021/04/03 04:47:53;;;;;;;8.18;0.95;;;27.30;67.10;;;;;;5068440;28;20383;-57
2021/04/03 04:50:21;;;;;;;2.75;0.98;;;27.30;67.30;;;;;;5069187;28;20025;-54
2021/04/03 04:52:49;;;;;;;7.35;1.88;;;27.30;67.20;;;;;;5070238;28;20020;-52
2021/04/03 04:55:17;;;;;;;5.05;3.92;;;27.50;64.20;;;;;;5070876;28;20036;-49
2021/04/03 04:57:45;;;;;;;12.18;4.75;;;27.40;65.50;;;;;;5065540;28;20033;-50
2021/04/03 05:00:28;;;;;;;9.45;2.35;;;27.40;65.80;;;;;;5069623;28;20109;-51
2021/04/03 05:02:55;;;;;;;5.75;2.35;;;27.60;64.00;;;;;;5073242;28;20530;-51
2021/04/03 05:05:23;;;;;;;10.25;4.05;;;27.60;64.50;;;;;;5072966;28;20032;-52
2021/04/03 05:07:50;;;;;;;8.10;4.15;;;27.70;64.50;;;;;;5054058;28;20090;-57
2021/04/03 05:10:18;;;;;;;11.05;3.42;;;27.70;64.70;;;;;;5071485;28;20031;-47
2021/04/03 05:12:46;;;;;;;10.88;5.15;;;27.70;65.10;;;;;;5072341;28;20020;-50
2021/04/03 05:15:13;;;;;;;5.45;3.17;;;27.70;64.20;;;;;;5072762;28;20031;-48
2021/04/03 05:17:40;;;;;;;8.10;3.40;;;27.60;64.30;;;;;;5073451;28;20033;-51
2021/04/03 05:20:09;;;;;;;8.52;3.40;;;27.30;63.60;;;;;;5072848;28;20036;-50
2021/04/03 05:22:36;;;;;;;7.45;4.78;;;27.40;65.10;;;;;;5072656;28;20031;-51
2021/04/03 05:25:04;;;;;;;14.77;4.90;;;27.30;64.20;;;;;;5072910;28;20033;-45
2021/04/03 05:27:32;;;;;;;3.85;2.65;;;27.40;65.10;;;;;;5072084;28;20035;-50
2021/04/03 05:29:59;;;;;;;7.07;5.82;;;27.40;65.20;;;;;;5072507;28;20116;-49
2021/04/03 05:32:27;;;;;;;8.52;4.53;;;27.40;65.90;;;;;;5072504;28;20017;-51
2021/04/03 05:34:54;;;;;;;4.53;2.33;;;27.40;66.90;;;;;;5072718;28;20082;-50
2021/04/03 05:37:22;;;;;;;4.68;1.98;;;27.50;64.10;;;;;;5072254;28;20616;-46
2021/04/03 05:39:50;;;;;;;6.18;2.35;;;27.50;65.40;;;;;;5072349;28;20486;-50
2021/04/03 05:42:19;;;;;;;7.88;2.58;;;27.50;65.40;;;;;;5072160;28;20056;-47
2021/04/03 05:44:48;;;;;;;3.65;1.58;;;27.50;66.00;;;;;;5072346;28;20179;-50
2021/04/03 05:47:16;;;;;;;5.80;1.98;;;27.40;65.00;;;;;;5054541;28;20107;-49
2021/04/03 05:49:44;;;;;;;8.25;1.92;;;27.40;64.60;;;;;;5072538;28;20036;-52
2021/04/03 05:52:12;;;;;;;10.85;2.00;;;27.60;65.80;;;;;;5071932;28;20078;-53
2021/04/03 05:54:44;;;;;;;6.22;1.50;;;27.50;63.70;;;;;;5072037;28;20493;-52
2021/04/03 05:57:12;;;;;;;6.47;2.78;;;27.30;65.10;;;;;;5072074;28;20025;-54
2021/04/03 05:59:40;;;;;;;4.15;0.73;;;27.50;65.00;;;;;;5071010;28;20082;-51
2021/04/03 06:02:08;;;;;;;12.38;1.40;;;27.20;64.00;;;;;;5071831;28;20021;-52
2021/04/03 06:04:35;;;;;;;5.50;0.70;;;27.00;64.70;;;;;;5071886;28;20039;-54
2021/04/03 06:07:05;;;;;;;3.33;0.90;;;27.20;65.60;;;;;;5071792;28;20505;-58
2021/04/03 06:09:32;;;;;;;10.18;1.40;;;27.30;65.40;;;;;;5054173;28;20028;-52
2021/04/03 06:12:00;;;;;;;4.57;1.30;;;27.30;66.70;;;;;;5072249;28;20077;-47
2021/04/03 06:14:34;;;;;;;3.88;1.02;;;27.30;65.10;;;;;;5072236;28;20166;-59
2021/04/03 06:17:02;;;;;;;5.30;1.10;;;27.20;65.30;;;;;;5072064;28;20028;-60
2021/04/03 06:19:31;;;;;;;4.78;1.02;;;27.10;66.50;;;;;;5072088;28;20029;-51
2021/04/03 06:22:01;;;;;;;12.27;1.63;;;27.20;67.30;;;;;;5072075;28;20117;-44
2021/04/03 06:24:31;;;;;;;2.85;1.20;;;27.20;68.20;;;;;;5071839;28;20051;-58
2021/04/03 06:27:02;;;;;;;11.18;1.70;;;27.30;67.20;;;;;;5072191;28;20068;-59
2021/04/03 06:29:50;;;;;;;4.97;0.82;;;27.20;67.10;;;;;;5072009;28;20039;-49
2021/04/03 06:32:19;;;;;;;4.15;1.15;;;27.20;67.60;;;;;;5071785;28;20021;-53
2021/04/03 06:34:53;;;;;;;6.32;0.75;;;27.20;68.40;;;;;;5072096;28;20386;-67
2021/04/03 06:37:28;;;;;;;8.95;1.65;;;27.10;67.20;;;;;;5071463;28;20482;-50
2021/04/03 06:39:57;;;;;;;12.18;1.67;;;27.10;67.60;;;;;;5071456;28;20028;-63
2021/04/03 06:42:41;;;;;;;4.78;1.27;;;27.10;67.60;;;;;;5072177;28;20426;-54
2021/04/03 06:45:27;;;;;;;10.55;0.75;;;27.10;67.60;;;;;;5060726;28;20041;-53
2021/04/03 06:48:05;;;;;;;6.95;1.25;;;27.10;67.60;;;;;;5075753;28;20021;-56
2021/04/03 06:50:38;;;;;;;6.60;1.15;;;27.10;67.20;;;;;;5075298;28;20036;-49
2021/04/03 06:53:22;;;;;;;6.25;1.60;;;27.10;68.50;;;;;;5076075;28;20030;-53
2021/04/03 06:55:51;;;;;;;5.25;1.15;;;27.10;68.80;;;;;;5075917;28;20111;-51
2021/04/03 06:58:19;;;;;;;5.32;1.20;;;27.10;68.10;;;;;;5075486;28;20468;-50
2021/04/03 07:00:49;;;;;;;4.25;1.10;;;26.90;68.80;;;;;;5075036;28;20036;-59
2021/04/03 07:03:23;;;;;;;15.35;1.65;;;26.90;68.60;;;;;;5075725;28;20020;-50
2021/04/03 07:05:51;;;;;;;4.38;0.90;;;26.80;68.50;;;;;;5064120;28;20086;-61
2021/04/03 07:08:20;;;;;;;3.65;0.90;;;26.70;68.40;;;;;;5073612;28;20033;-65
2021/04/03 07:10:48;;;;;;;6.22;0.90;;;26.80;68.60;;;;;;5072487;28;20047;-63
2021/04/03 07:13:15;;;;;;;3.72;1.15;;;26.60;69.80;;;;;;5053581;28;20021;-52
2021/04/03 07:15:46;;;;;;;6.93;1.23;;;26.50;68.70;;;;;;5073002;28;20032;-54
2021/04/03 07:18:16;;;;;;;2.75;1.00;;;26.30;70.30;;;;;;5073315;28;20024;-53
2021/04/03 07:20:44;;;;;;;6.05;0.82;;;26.10;70.90;;;;;;5073203;28;20557;-58
2021/04/03 07:23:15;;;;;;;1.52;0.75;;;26.10;72.20;;;;;;5069033;28;20032;-65
2021/04/03 07:25:45;;;;;;;6.40;0.98;;;26.00;71.60;;;;;;5074691;28;20119;-57
2021/04/03 07:28:15;;;;;;;4.35;0.80;;;25.90;71.60;;;;;;5075165;28;20395;-62
2021/04/03 07:30:45;;;;;;;4.60;1.20;;;25.80;73.20;;;;;;5072915;28;20162;-57
2021/04/03 07:33:16;;;;;;;3.80;1.08;;;25.80;72.60;;;;;;5068977;28;20023;-55
2021/04/03 07:35:53;;;;;;;3.83;1.00;;;25.70;73.00;;;;;;5072842;28;20024;-52
2021/04/03 07:38:37;;;;;;;4.88;0.70;;;25.60;73.40;;;;;;5073625;28;20016;-60
2021/04/03 07:41:17;;;;;;;7.35;1.10;;;25.50;73.40;;;;;;5072814;28;20032;-55
2021/04/03 07:43:49;;;;;;;2.03;1.20;;;25.40;73.90;;;;;;5067324;28;20547;-54
2021/04/03 07:46:25;;;;;;;3.45;1.20;;;25.30;74.30;;;;;;5072627;28;20090;-63
2021/04/03 07:48:55;;;;;;;1.75;0.80;;;25.30;74.90;;;;;;5072846;28;20538;-60
2021/04/03 07:51:26;;;;;;;2.92;0.88;;;25.20;74.90;;;;;;5054832;28;20124;-58
2021/04/03 07:53:56;;;;;;;2.35;1.10;;;25.10;75.40;;;;;;5068774;28;20107;-61
2021/04/03 07:56:50;;;;;;;4.32;1.00;;;25.00;75.60;;;;;;5072031;28;20493;-62
2021/04/03 07:59:18;;;;;;;1.63;0.80;;;25.00;76.10;;;;;;5073317;28;20013;-64
2021/04/03 08:01:46;;;;;;;4.00;1.35;;;24.90;76.70;;;;;;5073019;28;20089;-52
2021/04/03 08:04:14;;;;;;;8.13;1.83;;;24.90;77.00;;;;;;5067505;28;20417;-67
2021/04/03 08:06:43;;;;;;;9.18;2.70;;;24.90;77.30;;;;;;5071873;28;20060;-63
2021/04/03 08:09:15;;;;;;;11.32;2.90;;;24.80;77.60;;;;;;5072849;28;20031;-65
2021/04/03 08:11:46;;;;;;;8.52;2.15;;;24.80;77.70;;;;;;5072760;28;20027;-58
2021/04/03 08:14:16;;;;;;;9.45;2.33;;;24.70;78.10;;;;;;5067942;28;20056;-63
2021/04/03 08:16:45;;;;;;;7.50;2.38;;;24.70;78.40;;;;;;5071903;28;20067;-65
2021/04/03 08:19:14;;;;;;;4.68;1.80;;;24.70;78.40;;;;;;5073165;28;20024;-56
2021/04/03 08:21:45;;;;;;;9.05;2.20;;;24.70;78.80;;;;;;5072292;28;20037;-66
2021/04/03 08:24:14;;;;;;;6.28;1.63;;;24.60;78.90;;;;;;5067542;28;20048;-62
2021/04/03 08:26:42;;;;;;;9.30;1.83;;;24.50;79.00;;;;;;5071814;28;20866;-55
2021/04/03 08:29:20;;;;;;;7.43;2.20;;;24.50;79.30;;;;;;5072795;28;20435;-61
2021/04/03 08:31:52;;;;;;;5.90;1.90;;;24.50;79.40;;;;;;5072775;28;20100;-59
2021/04/03 08:34:19;;;;;;;;;;;24.40;79.60;;;;;;5069956;28;20029;-65
2021/04/03 08:36:47;;;;;;;5.13;1.23;;;24.40;79.70;;;;;;5071456;28;19904;-64
2021/04/03 08:39:24;;;;;;;5.13;1.80;;;24.40;79.90;;;;;;5073181;28;20120;-51
2021/04/03 08:41:54;;;;;;;4.03;1.60;;;24.40;80.20;;;;;;5071588;28;20025;-56
2021/04/03 08:44:24;;;;;;;4.93;1.55;;;24.40;80.20;;;;;;5051301;28;20036;-67
2021/04/03 08:47:00;;;;;;;5.72;1.63;;;24.30;80.30;;;;;;5071291;28;20056;-68
2021/04/03 08:49:36;;;;;;;6.28;2.25;;;24.30;80.60;;;;;;5071770;28;20570;-66
2021/04/03 08:52:06;;;;;;;5.72;1.70;;;24.30;80.80;;;;;;5064432;28;20021;-61
2021/04/03 08:54:44;;;;;;;4.45;2.20;;;24.30;80.90;;;;;;5053506;28;20047;-66
2021/04/03 08:57:26;;;;;;;4.57;1.25;;;24.20;80.90;;;;;;5069831;28;20063;-64
2021/04/03 08:59:59;;;;;;;6.32;1.60;;;24.20;80.90;;;;;;5071620;28;20376;-63
2021/04/03 09:02:27;;;;;;;3.75;1.30;;;24.20;81.00;;;;;;5066845;28;20040;-67
2021/04/03 09:04:54;;;;;;;5.22;1.63;;;24.20;81.20;;;;;;5069710;28;20032;-62
2021/04/03 09:07:51;;;;;;;4.68;1.38;;;24.20;81.10;;;;;;5071158;28;20123;-69
2021/04/03 09:10:21;;;;;;;3.70;1.50;;;24.10;81.20;;;;;;5049113;28;20098;-62
2021/04/03 09:12:49;;;;;;;4.50;1.35;;;24.10;81.30;;;;;;5066577;28;20437;-63
2021/04/03 09:15:28;;;;;;;4.18;1.50;;;24.10;81.20;;;;;;5070240;28;20024;-59
2021/04/03 09:17:58;;;;;;;2.70;1.27;;;24.10;81.40;;;;;;5071378;28;20032;-57
2021/04/03 09:20:32;;;;;;;3.55;1.83;;;24.10;81.60;;;;;;5071694;28;20037;-53
2021/04/03 09:23:07;;;;;;;7.43;1.27;;;24.10;81.80;;;;;;5067615;28;20161;-58
2021/04/03 09:25:34;;;;;;;5.07;1.55;;;24.00;81.70;;;;;;5070155;28;20036;-53
2021/04/03 09:28:10;;;;;;;8.50;1.65;;;24.00;81.80;;;;;;5070726;28;20024;-53
2021/04/03 09:30:43;;;;;;;4.07;1.50;;;24.00;82.00;;;;;;5070476;28;20034;-54
2021/04/03 09:33:21;;;;;;;4.45;1.48;;;24.00;81.90;;;;;;5067429;28;20040;-55
2021/04/03 09:35:50;;;;;;;5.78;1.65;;;24.00;82.10;;;;;;5070802;28;20082;-56
2021/04/03 09:38:43;;;;;;;3.40;1.30;;;23.90;82.10;;;;;;5071630;28;20021;-51
2021/04/03 09:41:28;;;;;;;2.45;0.95;;;24.00;82.20;;;;;;5071395;28;20115;-54
2021/04/03 09:43:56;;;;;;;4.03;1.23;;;23.90;82.20;;;;;;5066191;28;20039;-66
2021/04/03 09:46:24;;;;;;;7.38;1.45;;;23.90;82.20;;;;;;5070361;28;20048;-67
2021/04/03 09:48:51;;;;;;;4.60;1.48;;;23.90;82.30;;;;;;5071279;28;20025;-67
2021/04/03 09:51:21;;;;;;;4.03;1.38;;;23.90;82.40;;;;;;5070687;28;20056;-68
2021/04/03 09:53:48;;;;;;;6.00;1.30;;;23.90;82.50;;;;;;5066603;28;20086;-65
2021/04/03 09:56:16;;;;;;;3.03;1.20;;;23.90;82.50;;;;;;5069686;28;20020;-65
2021/04/03 09:58:44;;;;;;;3.83;1.48;;;23.90;82.60;;;;;;5070534;28;20054;-65
2021/04/03 10:01:11;;;;;;;3.63;1.38;;;23.90;82.60;;;;;;5070394;28;20542;-56
2021/04/03 10:03:38;;;;;;;4.65;1.30;;;23.80;82.60;;;;;;5066466;28;20032;-61
2021/04/03 10:06:06;;;;;;;4.95;1.10;;;23.80;82.80;;;;;;5069311;28;20033;-54
2021/04/03 10:08:33;;;;;;;4.38;1.35;;;23.80;82.70;;;;;;5067580;28;20025;-54
2021/04/03 10:11:01;;;;;;;3.85;1.00;;;23.70;82.80;;;;;;5071357;28;20339;-69
2021/04/03 10:13:28;;;;;;;2.38;1.10;;;23.70;83.50;;;;;;5066145;28;20037;-65
2021/04/03 10:15:56;;;;;;;4.05;1.58;;;23.70;82.90;;;;;;5069729;28;20027;-70
2021/04/03 10:18:23;;;;;;;4.50;1.23;;;23.70;83.00;;;;;;5070600;28;20036;-64
2021/04/03 10:20:51;;;;;;;4.30;1.27;;;23.70;83.00;;;;;;5070729;28;20669;-66
2021/04/03 10:23:18;;;;;;;4.25;1.38;;;23.70;83.20;;;;;;5048522;28;20090;-66
2021/04/03 10:25:47;;;;;;;4.32;1.35;;;23.70;83.20;;;;;;5069759;28;20036;-64
2021/04/03 10:28:14;;;;;;;5.38;1.20;;;23.70;83.10;;;;;;5052184;28;20047;-66
2021/04/03 10:30:41;;;;;;;7.78;1.83;;;23.70;83.30;;;;;;5070517;28;20115;-64
2021/04/03 10:33:09;;;;;;;1.98;1.10;;;23.60;83.30;;;;;;5062221;28;20040;-66
2021/04/03 10:35:37;;;;;;;3.47;1.10;;;23.60;83.30;;;;;;5052166;28;20028;-65
2021/04/03 10:38:04;;;;;;;4.18;1.38;;;23.60;83.40;;;;;;5036327;28;20032;-65
2021/04/03 10:40:32;;;;;;;3.83;1.33;;;23.60;83.40;;;;;;5070504;28;20041;-67
2021/04/03 10:42:59;;;;;;;2.50;1.20;;;23.60;83.50;;;;;;5066364;28;20040;-60
2021/04/03 10:45:26;;;;;;;2.03;1.15;;;23.60;83.40;;;;;;5069605;28;20040;-63
2021/04/03 10:47:54;;;;;;;3.10;1.13;;;23.60;83.50;;;;;;5070431;28;20020;-64
2021/04/03 10:50:21;;;;;;;1.77;1.00;;;23.60;83.60;;;;;;5068111;28;20031;-66
2021/04/03 10:52:49;;;;;;;2.88;1.20;;;23.60;83.60;;;;;;5065591;28;20025;-67
2021/04/03 10:55:16;;;;;;;4.43;1.38;;;23.60;83.40;;;;;;5069133;28;20060;-62
2021/04/03 10:57:44;;;;;;;3.85;1.40;;;23.60;83.70;;;;;;5069909;28;20047;-68
2021/04/03 11:00:12;;;;;;;3.47;1.20;;;23.50;83.60;;;;;;5070168;28;20382;-57
2021/04/03 11:02:39;;;;;;;3.22;1.10;;;23.50;83.50;;;;;;5065464;28;20048;-64
2021/04/03 11:05:07;;;;;;;3.60;1.17;;;23.50;83.70;;;;;;5070243;28;20041;-68
2021/04/03 11:07:34;;;;;;;2.13;1.20;;;23.50;83.60;;;;;;5069527;28;20044;-63
2021/04/03 11:10:02;;;;;;;3.58;1.70;;;23.50;83.70;;;;;;5069801;28;20028;-66
2021/04/03 11:12:30;;;;;;;2.30;0.90;;;23.50;83.70;;;;;;5066003;28;20799;-67
2021/04/03 11:14:57;;;;;;;3.70;1.38;;;23.50;83.70;;;;;;5070552;28;20411;-69
2021/04/03 11:17:24;;;;;;;2.20;0.95;;;23.50;83.80;;;;;;5069546;28;20021;-65
2021/04/03 11:19:54;;;;;;;3.30;1.08;;;23.50;83.60;;;;;;5069680;28;20139;-67
2021/04/03 11:22:22;;;;;;;2.72;1.00;;;23.50;83.80;;;;;;5065856;28;20129;-65
2021/04/03 11:24:50;;;;;;;1.63;0.80;;;23.40;83.70;;;;;;5068160;28;20040;-57
2021/04/03 11:27:17;;;;;;;4.80;1.23;;;23.40;83.70;;;;;;5070196;28;20032;-60
2021/04/03 11:29:45;;;;;;;2.63;1.00;;;23.40;83.80;;;;;;5061670;28;20028;-65
2021/04/03 11:32:13;;;;;;;3.97;1.25;;;23.40;83.70;;;;;;5073570;28;20032;-64
2021/04/03 11:34:41;;;;;;;4.05;1.25;;;23.40;83.70;;;;;;5075258;28;20354;-62
2021/04/03 11:37:09;;;;;;;2.55;0.98;;;23.40;83.80;;;;;;5074810;28;20051;-58
2021/04/03 11:39:38;;;;;;;2.38;1.30;;;23.40;83.80;;;;;;5075550;28;20021;-62
2021/04/03 11:42:06;;;;;;;2.50;1.05;;;23.30;83.80;;;;;;5075134;28;20024;-57
2021/04/03 11:44:37;;;;;;;2.65;0.93;;;23.40;83.90;;;;;;5074832;28;20044;-59
2021/04/03 11:47:04;;;;;;;4.30;1.27;;;23.30;83.90;;;;;;5074863;28;20047;-59
2021/04/03 11:49:31;;;;;;;1.75;0.90;;;23.30;83.90;;;;;;5075326;28;20029;-55
2021/04/03 11:51:59;;;;;;;1.80;0.98;;;23.30;83.90;;;;;;5074189;28;20498;-56
2021/04/03 11:54:26;;;;;;;4.97;1.25;;;23.30;84.00;;;;;;5073933;28;20086;-57
2021/04/03 11:56:56;;;;;;;1.77;0.80;;;23.30;84.10;;;;;;5075041;28;20479;-51
2021/04/03 11:59:24;;;;;;;4.45;1.40;;;23.30;84.20;;;;;;5074896;28;20052;-52
2021/04/03 12:01:51;;;;;;;2.05;0.70;;;23.20;84.10;;;;;;5074742;28;20058;-56
2021/04/03 12:04:19;;;;;;;2.85;1.20;;;23.10;84.20;;;;;;5074783;28;20024;-53
2021/04/03 12:06:55;;;;;;;3.63;1.40;;;23.20;84.30;;;;;;5083273;28;20036;-52
2021/04/03 12:09:22;;;;;;;2.22;0.85;;;23.10;84.30;;;;;;5078465;28;20028;-65
2021/04/03 12:11:50;;;;;;;3.83;1.23;;;23.10;84.30;;;;;;5093489;28;20398;-57
2021/04/03 12:14:17;;;;;;;3.13;0.80;;;23.10;84.40;;;;;;5094526;28;20051;-61
2021/04/03 12:16:45;;;;;;;2.00;1.17;;;23.10;84.50;;;;;;5076669;28;20024;-61
2021/04/03 12:19:12;;;;;;;2.92;1.30;;;23.10;84.60;;;;;;5094406;28;20028;-54
2021/04/03 12:21:39;;;;;;;4.60;1.00;;;23.00;84.50;;;;;;5094229;28;20450;-53
2021/04/03 12:24:07;;;;;;;2.22;1.05;;;23.00;84.70;;;;;;5094284;28;20375;-52
2021/04/03 12:26:36;;;;;;;5.03;1.30;;;23.00;84.70;;;;;;5094078;28;20020;-51
2021/04/03 12:29:03;;;;;;;3.88;1.67;;;23.00;84.70;;;;;;5094392;28;20036;-55
2021/04/03 12:31:31;;;;;;;3.30;1.25;;;23.00;84.80;;;;;;5093953;28;20020;-60
2021/04/03 12:33:58;;;;;;;3.08;0.95;;;23.00;84.80;;;;;;5073638;28;20533;-56
2021/04/03 12:36:25;;;;;;;3.30;1.30;;;23.00;85.00;;;;;;5069438;28;20052;-56
2021/04/03 12:38:53;;;;;;;2.60;1.02;;;22.90;84.90;;;;;;5070092;28;20043;-56
2021/04/03 12:41:20;;;;;;;2.47;1.00;;;22.90;84.80;;;;;;5071516;28;20024;-52
2021/04/03 12:43:50;;;;;;;2.42;1.10;;;22.90;85.00;;;;;;5070501;28;20127;-54
2021/04/03 12:46:19;;;;;;;3.70;1.10;;;22.90;85.00;;;;;;5071658;28;20052;-56
2021/04/03 12:48:46;;;;;;;5.03;1.52;;;22.90;85.10;;;;;;5067742;28;20483;-54
2021/04/03 12:51:14;;;;;;;2.58;0.88;;;22.90;85.00;;;;;;5071947;28;20027;-55
2021/04/03 12:53:41;;;;;;;3.22;1.00;;;22.90;85.20;;;;;;5071345;28;20024;-53
2021/04/03 12:56:09;;;;;;;2.65;1.23;;;22.90;85.20;;;;;;5071602;28;20135;-54
2021/04/03 12:58:36;;;;;;;4.50;0.80;;;22.90;85.40;;;;;;5067504;28;20043;-55
2021/04/03 13:01:04;;;;;;;3.80;1.10;;;22.80;85.30;;;;;;5071445;28;20357;-55